createdAt,value
2019-02-16T00:00:21.629Z,0
2019-02-16T00:01:20.328Z,0
2019-02-16T00:02:19.190Z,0
2019-02-16T00:03:17.812Z,0
2019-02-16T00:04:16.429Z,0
2019-02-16T00:05:15.075Z,0
2019-02-16T00:06:13.704Z,0
2019-02-16T00:07:12.275Z,0
2019-02-16T00:08:10.815Z,0
2019-02-16T00:09:09.443Z,0
2019-02-16T00:10:08.037Z,0
2019-02-16T00:11:06.779Z,0
2019-02-16T00:12:05.286Z,0
2019-02-16T00:13:03.860Z,0
2019-02-16T00:14:02.685Z,0
2019-02-16T00:15:01.289Z,0
2019-02-16T00:17:45.998Z,0
2019-02-16T00:18:44.800Z,0
2019-02-16T00:19:43.490Z,0
2019-02-16T00:20:42.022Z,0
2019-02-16T00:21:40.684Z,0
2019-02-16T00:22:39.326Z,0
2019-02-16T00:23:37.884Z,0
2019-02-16T00:24:36.510Z,0
2019-02-16T00:25:35.167Z,0
2019-02-16T00:26:33.728Z,0
2019-02-16T00:27:32.277Z,0
2019-02-16T00:28:31.080Z,0
2019-02-16T00:29:29.552Z,0
2019-02-16T00:30:28.065Z,0
2019-02-16T00:31:26.933Z,0
2019-02-16T00:32:25.470Z,0
2019-02-16T00:33:24.029Z,0
2019-02-16T00:34:22.613Z,0
2019-02-16T00:35:21.223Z,0
2019-02-16T00:36:19.848Z,0
2019-02-16T00:37:18.416Z,0
2019-02-16T00:38:16.982Z,0
2019-02-16T00:39:15.529Z,0
2019-02-16T00:40:14.230Z,0
2019-02-16T00:41:13.108Z,0
2019-02-16T00:42:11.713Z,0
2019-02-16T00:43:10.244Z,0
2019-02-16T00:44:08.942Z,0
2019-02-16T00:45:07.492Z,0
2019-02-16T00:46:06.102Z,0
2019-02-16T00:47:04.663Z,0
2019-02-16T00:48:03.197Z,0
2019-02-16T00:49:01.748Z,0
2019-02-16T00:50:00.356Z,0
2019-02-16T00:50:59.123Z,0
2019-02-16T00:51:57.666Z,0
2019-02-16T00:52:56.210Z,0
2019-02-16T00:53:54.869Z,0
2019-02-16T00:54:53.468Z,0
2019-02-16T00:55:52.001Z,0
2019-02-16T00:56:50.699Z,0
2019-02-16T00:57:49.256Z,0
2019-02-16T00:58:48.075Z,0
2019-02-16T00:59:46.430Z,0
2019-02-16T01:00:44.980Z,0
2019-02-16T01:01:43.517Z,0
2019-02-16T01:02:42.098Z,0
2019-02-16T01:03:40.931Z,0
2019-02-16T01:04:39.512Z,0
2019-02-16T01:05:38.066Z,0
2019-02-16T01:06:36.831Z,0
2019-02-16T01:07:35.411Z,0
2019-02-16T01:08:33.933Z,0
2019-02-16T01:09:32.533Z,0
2019-02-16T01:10:31.217Z,0
2019-02-16T01:11:29.759Z,0
2019-02-16T01:12:28.348Z,0
2019-02-16T01:13:27.078Z,0
2019-02-16T01:14:25.641Z,0
2019-02-16T01:15:24.176Z,0
2019-02-16T01:16:23.044Z,0
2019-02-16T01:17:21.689Z,0
2019-02-16T01:18:20.233Z,0
2019-02-16T01:19:19.113Z,0
2019-02-16T01:20:17.720Z,0
2019-02-16T01:21:22.388Z,0
2019-02-16T01:22:15.179Z,0
2019-02-16T01:23:13.715Z,0
2019-02-16T01:24:12.338Z,0
2019-02-16T01:25:11.091Z,0
2019-02-16T01:26:09.632Z,0
2019-02-16T01:27:08.368Z,0
2019-02-16T01:28:07.217Z,0
2019-02-16T01:29:05.740Z,0
2019-02-16T01:30:04.323Z,0
2019-02-16T01:31:02.880Z,0
2019-02-16T01:32:01.459Z,0
2019-02-16T01:33:00.009Z,0
2019-02-16T01:33:58.934Z,0
2019-02-16T01:34:57.600Z,0
2019-02-16T01:35:56.193Z,0
2019-02-16T01:36:54.810Z,0
2019-02-16T01:37:53.340Z,0
2019-02-16T01:38:51.914Z,0
2019-02-16T01:39:50.452Z,0
2019-02-16T01:40:49.000Z,0
2019-02-16T01:41:48.009Z,0
2019-02-16T01:42:46.169Z,0
2019-02-16T01:43:45.041Z,0
2019-02-16T01:44:43.750Z,0
2019-02-16T01:45:42.360Z,0
2019-02-16T01:46:41.104Z,0
2019-02-16T01:47:39.651Z,0
2019-02-16T01:48:38.301Z,0
2019-02-16T01:49:36.961Z,0
2019-02-16T01:50:35.815Z,0
2019-02-16T01:51:34.560Z,0
2019-02-16T01:52:33.184Z,0
2019-02-16T01:53:31.862Z,0
2019-02-16T01:54:30.369Z,0
2019-02-16T01:55:29.052Z,0
2019-02-16T01:56:27.562Z,0
2019-02-16T01:57:26.392Z,0
2019-02-16T01:58:24.997Z,0
2019-02-16T01:59:23.554Z,0
2019-02-16T02:00:22.083Z,0
2019-02-16T02:01:20.714Z,0
2019-02-16T02:02:19.288Z,0
2019-02-16T02:03:17.829Z,0
2019-02-16T02:04:16.362Z,0
2019-02-16T02:05:14.943Z,0
2019-02-16T02:06:13.463Z,0
2019-02-16T02:07:12.016Z,0
2019-02-16T02:08:10.996Z,0
2019-02-16T02:09:09.565Z,0
2019-02-16T02:10:08.113Z,0
2019-02-16T02:11:06.820Z,0
2019-02-16T02:12:05.376Z,0
2019-02-16T02:13:03.910Z,0
2019-02-16T02:14:02.476Z,0
2019-02-16T02:15:01.043Z,0
2019-02-16T02:15:59.576Z,0
2019-02-16T02:16:58.117Z,0
2019-02-16T02:17:56.677Z,0
2019-02-16T02:18:55.266Z,0
2019-02-16T02:19:53.783Z,0
2019-02-16T02:20:52.315Z,0
2019-02-16T02:21:50.953Z,0
2019-02-16T02:22:49.511Z,0
2019-02-16T02:23:48.042Z,0
2019-02-16T02:24:46.956Z,0
2019-02-16T02:25:45.419Z,0
2019-02-16T02:26:44.313Z,0
2019-02-16T02:27:42.905Z,0
2019-02-16T02:28:41.668Z,0
2019-02-16T02:29:40.347Z,0
2019-02-16T02:30:39.070Z,0
2019-02-16T02:31:37.744Z,0
2019-02-16T02:32:36.368Z,0
2019-02-16T02:33:34.933Z,0
2019-02-16T02:34:33.525Z,0
2019-02-16T02:35:32.077Z,0
2019-02-16T02:36:30.741Z,0
2019-02-16T02:37:29.456Z,0
2019-02-16T02:38:27.999Z,0
2019-02-16T02:39:26.896Z,0
2019-02-16T02:40:25.432Z,0
2019-02-16T02:41:23.992Z,0
2019-02-16T02:42:22.523Z,0
2019-02-16T02:43:21.104Z,0
2019-02-16T02:44:19.679Z,0
2019-02-16T02:45:18.219Z,0
2019-02-16T02:46:17.013Z,0
2019-02-16T02:47:15.555Z,0
2019-02-16T02:48:14.127Z,0
2019-02-16T02:49:12.674Z,0
2019-02-16T02:50:11.256Z,0
2019-02-16T02:51:09.801Z,0
2019-02-16T02:52:08.365Z,0
2019-02-16T02:53:07.078Z,0
2019-02-16T02:54:05.605Z,0
2019-02-16T02:55:04.122Z,0
2019-02-16T02:56:02.674Z,0
2019-02-16T02:57:01.206Z,0
2019-02-16T02:57:59.753Z,0
2019-02-16T02:58:58.308Z,0
2019-02-16T02:59:56.873Z,0
2019-02-16T03:00:55.462Z,0
2019-02-16T03:01:53.994Z,0
2019-02-16T03:02:52.576Z,0
2019-02-16T03:03:51.310Z,0
2019-02-16T03:04:49.860Z,0
2019-02-16T03:05:48.714Z,0
2019-02-16T03:06:47.258Z,0
2019-02-16T03:07:45.835Z,0
2019-02-16T03:08:44.519Z,0
2019-02-16T03:09:43.134Z,0
2019-02-16T03:10:41.715Z,0
2019-02-16T03:11:40.280Z,0
2019-02-16T03:12:38.928Z,0
2019-02-16T03:13:37.489Z,0
2019-02-16T03:14:36.042Z,0
2019-02-16T03:15:34.654Z,0
2019-02-16T03:16:33.286Z,0
2019-02-16T03:17:31.828Z,0
2019-02-16T03:18:30.510Z,0
2019-02-16T03:19:29.096Z,0
2019-02-16T03:20:27.632Z,0
2019-02-16T03:21:26.197Z,0
2019-02-16T03:22:24.777Z,0
2019-02-16T03:23:23.421Z,0
2019-02-16T03:24:22.237Z,0
2019-02-16T03:25:21.066Z,0
2019-02-16T03:26:19.621Z,0
2019-02-16T03:27:18.212Z,0
2019-02-16T03:28:16.773Z,0
2019-02-16T03:29:15.359Z,0
2019-02-16T03:30:13.887Z,0
2019-02-16T03:31:12.419Z,0
2019-02-16T03:32:11.270Z,0
2019-02-16T03:33:09.877Z,0
2019-02-16T03:34:08.506Z,0
2019-02-16T03:35:07.155Z,0
2019-02-16T03:36:05.728Z,0
2019-02-16T03:38:45.991Z,0
2019-02-16T03:39:44.524Z,0
2019-02-16T03:40:43.297Z,0
2019-02-16T03:41:41.993Z,0
2019-02-16T03:42:40.791Z,0
2019-02-16T03:43:39.365Z,0
2019-02-16T03:44:37.915Z,0
2019-02-16T03:45:36.463Z,0
2019-02-16T03:46:34.992Z,0
2019-02-16T03:47:33.552Z,0
2019-02-16T03:48:32.152Z,0
2019-02-16T03:49:31.064Z,0
2019-02-16T03:50:29.586Z,0
2019-02-16T03:51:28.152Z,0
2019-02-16T03:52:26.682Z,0
2019-02-16T04:07:13.325Z,0
2019-02-16T04:08:11.888Z,0
2019-02-16T04:09:10.495Z,0
2019-02-16T04:10:09.047Z,0
2019-02-16T04:11:07.653Z,0
2019-02-16T04:12:06.190Z,0
2019-02-16T04:13:04.833Z,0
2019-02-16T04:14:03.515Z,0
2019-02-16T04:15:02.067Z,0
2019-02-16T04:16:00.790Z,0
2019-02-16T04:16:59.562Z,0
2019-02-16T04:17:58.102Z,0
2019-02-16T04:18:56.717Z,0
2019-02-16T04:19:55.285Z,0
2019-02-16T04:20:53.877Z,0
2019-02-16T04:21:52.446Z,0
2019-02-16T04:22:51.249Z,0
2019-02-16T04:23:49.785Z,0
2019-02-16T04:24:48.450Z,0
2019-02-16T04:25:47.136Z,0
2019-02-16T04:26:45.725Z,0
2019-02-16T04:27:44.274Z,0
2019-02-16T04:28:42.857Z,0
2019-02-16T04:29:41.422Z,0
2019-02-16T04:30:39.971Z,0
2019-02-16T04:31:38.503Z,0
2019-02-16T04:32:37.029Z,0
2019-02-16T04:33:35.625Z,0
2019-02-16T04:34:34.170Z,0
2019-02-16T04:35:33.123Z,0
2019-02-16T04:36:31.695Z,0
2019-02-16T04:37:30.243Z,0
2019-02-16T04:38:28.944Z,0
2019-02-16T04:39:27.505Z,0
2019-02-16T04:40:26.051Z,0
2019-02-16T04:41:24.955Z,0
2019-02-16T04:42:23.608Z,0
2019-02-16T04:43:22.197Z,0
2019-02-16T04:44:21.202Z,0
2019-02-16T04:45:19.810Z,0
2019-02-16T04:46:18.359Z,0
2019-02-16T04:47:17.163Z,0
2019-02-16T04:48:15.720Z,0
2019-02-16T04:49:14.361Z,0
2019-02-16T04:50:13.068Z,0
2019-02-16T04:51:11.609Z,0
2019-02-16T04:52:10.150Z,0
2019-02-16T04:53:08.770Z,0
2019-02-16T04:54:07.334Z,0
2019-02-16T04:55:05.966Z,0
2019-02-16T04:56:04.577Z,0
2019-02-16T04:57:03.242Z,0
2019-02-16T04:58:01.859Z,0
2019-02-16T04:59:00.430Z,0
2019-02-16T04:59:59.003Z,0
2019-02-16T05:00:57.567Z,0
2019-02-16T05:01:56.100Z,0
2019-02-16T05:02:54.888Z,0
2019-02-16T05:03:53.458Z,0
2019-02-16T05:04:52.030Z,0
2019-02-16T05:05:50.595Z,0
2019-02-16T05:06:49.319Z,0
2019-02-16T05:07:47.869Z,0
2019-02-16T05:08:46.435Z,0
2019-02-16T05:09:45.129Z,0
2019-02-16T05:10:43.656Z,0
2019-02-16T05:11:42.252Z,0
2019-02-16T05:12:40.807Z,0
2019-02-16T05:13:39.454Z,0
2019-02-16T05:14:38.007Z,0
2019-02-16T05:15:36.618Z,0
2019-02-16T05:16:35.251Z,0
2019-02-16T05:17:33.832Z,0
2019-02-16T05:18:32.350Z,0
2019-02-16T05:19:31.063Z,0
2019-02-16T05:20:29.633Z,0
2019-02-16T05:21:28.152Z,0
2019-02-16T05:23:43.995Z,0
2019-02-16T05:24:42.701Z,0
2019-02-16T05:25:41.286Z,0
2019-02-16T05:26:39.867Z,0
2019-02-16T05:27:38.409Z,0
2019-02-16T05:28:36.954Z,0
2019-02-16T05:29:35.553Z,0
2019-02-16T05:30:34.082Z,0
2019-02-16T05:31:32.864Z,0
2019-02-16T05:32:31.423Z,0
2019-02-16T05:33:29.982Z,0
2019-02-16T05:34:28.563Z,0
2019-02-16T05:35:27.215Z,0
2019-02-16T05:36:25.781Z,0
2019-02-16T05:37:24.502Z,0
2019-02-16T05:38:23.091Z,0
2019-02-16T05:39:21.643Z,0
2019-02-16T05:40:20.198Z,0
2019-02-16T05:41:18.774Z,0
2019-02-16T05:42:17.441Z,0
2019-02-16T05:43:15.979Z,0
2019-02-16T05:44:14.808Z,0
2019-02-16T05:45:13.529Z,0
2019-02-16T05:46:12.072Z,0
2019-02-16T05:47:10.691Z,0
2019-02-16T05:48:09.318Z,0
2019-02-16T05:49:07.888Z,0
2019-02-16T05:50:06.443Z,0
2019-02-16T05:51:05.084Z,0
2019-02-16T05:52:03.651Z,0
2019-02-16T05:53:02.263Z,0
2019-02-16T05:54:00.950Z,0
2019-02-16T05:54:59.464Z,0
2019-02-16T05:55:58.014Z,0
2019-02-16T05:56:56.630Z,0
2019-02-16T05:57:55.263Z,0
2019-02-16T05:58:53.810Z,0
2019-02-16T05:59:52.361Z,0
2019-02-16T06:00:50.934Z,0
2019-02-16T06:01:53.716Z,0
2019-02-16T06:02:48.025Z,0
2019-02-16T06:03:46.592Z,4
2019-02-16T06:04:45.137Z,4
2019-02-16T06:05:43.676Z,0
2019-02-16T06:06:42.239Z,4
2019-02-16T06:07:40.952Z,0
2019-02-16T06:08:39.504Z,4
2019-02-16T06:09:38.067Z,4
2019-02-16T06:10:36.730Z,4
2019-02-16T06:13:20.822Z,8
2019-02-16T06:15:37.679Z,12
2019-02-16T06:16:36.217Z,12
2019-02-16T06:17:35.120Z,16
2019-02-16T06:18:33.660Z,20
2019-02-16T06:19:32.226Z,20
2019-02-16T06:20:30.817Z,24
2019-02-16T06:21:29.395Z,32
2019-02-16T06:22:27.924Z,32
2019-02-16T06:23:26.593Z,40
2019-02-16T06:24:25.146Z,44
2019-02-16T06:25:23.695Z,52
2019-02-16T06:26:22.251Z,60
2019-02-16T06:27:20.907Z,68
2019-02-16T06:28:19.573Z,80
2019-02-16T06:29:18.129Z,92
2019-02-16T06:30:16.871Z,100
2019-02-16T06:31:15.487Z,112
2019-02-16T06:32:14.009Z,124
2019-02-16T06:33:12.553Z,140
2019-02-16T06:34:11.121Z,156
2019-02-16T06:35:09.700Z,172
2019-02-16T06:36:08.222Z,188
2019-02-16T06:37:06.846Z,204
2019-02-16T06:38:05.401Z,224
2019-02-16T06:39:03.984Z,244
2019-02-16T06:40:02.536Z,260
2019-02-16T06:41:01.106Z,288
2019-02-16T06:41:59.742Z,312
2019-02-16T06:42:58.291Z,332
2019-02-16T06:43:57.103Z,356
2019-02-16T06:44:55.640Z,376
2019-02-16T06:45:54.181Z,400
2019-02-16T06:46:52.874Z,420
2019-02-16T06:47:51.448Z,444
2019-02-16T06:48:50.041Z,472
2019-02-16T06:49:48.550Z,492
2019-02-16T06:50:47.267Z,516
2019-02-16T06:51:45.828Z,544
2019-02-16T06:52:44.472Z,564
2019-02-16T06:53:43.226Z,588
2019-02-16T06:54:41.775Z,608
2019-02-16T06:55:40.555Z,632
2019-02-16T06:56:39.154Z,660
2019-02-16T06:57:37.760Z,680
2019-02-16T06:58:36.253Z,700
2019-02-16T06:59:35.120Z,724
2019-02-16T07:00:33.720Z,744
2019-02-16T07:01:33.180Z,768
2019-02-16T07:02:31.280Z,792
2019-02-16T07:03:29.803Z,812
2019-02-16T07:04:28.370Z,836
2019-02-16T07:05:26.927Z,856
2019-02-16T07:06:25.859Z,876
2019-02-16T07:07:24.476Z,896
2019-02-16T07:08:23.234Z,920
2019-02-16T07:09:21.765Z,940
2019-02-16T07:10:20.367Z,964
2019-02-16T07:11:18.889Z,988
2019-02-16T07:12:17.455Z,1008
2019-02-16T07:13:15.992Z,1028
2019-02-16T07:14:14.541Z,1052
2019-02-16T07:15:13.351Z,1080
2019-02-16T07:16:11.919Z,1100
2019-02-16T07:17:10.592Z,1120
2019-02-16T07:18:09.289Z,1136
2019-02-16T07:19:07.824Z,1156
2019-02-16T07:20:07.820Z,1168
2019-02-16T07:21:05.028Z,1180
2019-02-16T07:22:03.600Z,1188
2019-02-16T07:23:02.140Z,1200
2019-02-16T07:24:00.672Z,1212
2019-02-16T07:24:59.605Z,1232
2019-02-16T07:25:58.125Z,1256
2019-02-16T07:26:56.823Z,1272
2019-02-16T07:27:55.438Z,1284
2019-02-16T07:28:54.065Z,1288
2019-02-16T07:29:52.730Z,1292
2019-02-16T07:30:51.270Z,1304
2019-02-16T07:31:49.808Z,1316
2019-02-16T07:32:48.470Z,1328
2019-02-16T07:33:47.257Z,1344
2019-02-16T07:34:45.857Z,1356
2019-02-16T07:35:44.765Z,1368
2019-02-16T07:38:25.089Z,1396
2019-02-16T07:39:23.633Z,1408
2019-02-16T07:40:22.232Z,1416
2019-02-16T07:41:20.865Z,1428
2019-02-16T07:42:19.654Z,1436
2019-02-16T07:43:18.333Z,1444
2019-02-16T07:44:16.937Z,1452
2019-02-16T07:45:15.508Z,1460
2019-02-16T07:46:14.057Z,1476
2019-02-16T07:47:12.952Z,1480
2019-02-16T07:48:13.698Z,1488
2019-02-16T07:49:12.239Z,1496
2019-02-16T07:50:10.801Z,1504
2019-02-16T07:51:09.325Z,1516
2019-02-16T07:52:07.863Z,1524
2019-02-16T08:07:14.793Z,1604
2019-02-16T08:08:13.412Z,1612
2019-02-16T08:09:11.993Z,1620
2019-02-16T08:10:10.576Z,1620
2019-02-16T08:11:09.283Z,1628
2019-02-16T08:12:08.316Z,1628
2019-02-16T08:13:06.910Z,1632
2019-02-16T08:14:05.626Z,1636
2019-02-16T08:15:04.171Z,1644
2019-02-16T08:16:02.751Z,1652
2019-02-16T08:17:01.519Z,1660
2019-02-16T08:18:00.074Z,1664
2019-02-16T08:18:58.712Z,1664
2019-02-16T08:19:57.392Z,1664
2019-02-16T08:20:55.975Z,1672
2019-02-16T08:21:54.506Z,1676
2019-02-16T08:22:53.115Z,1684
2019-02-16T08:23:51.646Z,1688
2019-02-16T08:24:50.144Z,1696
2019-02-16T08:25:48.722Z,1700
2019-02-16T08:26:47.252Z,1704
2019-02-16T08:27:45.840Z,1704
2019-02-16T08:28:44.399Z,1704
2019-02-16T08:31:24.492Z,1708
2019-02-16T08:32:23.273Z,1708
2019-02-16T08:33:21.880Z,1712
2019-02-16T08:34:20.446Z,1716
2019-02-16T08:35:19.484Z,1716
2019-02-16T08:36:17.960Z,1720
2019-02-16T08:37:16.495Z,1716
2019-02-16T08:38:15.292Z,1716
2019-02-16T08:39:13.816Z,1716
2019-02-16T08:41:54.226Z,1728
2019-02-16T08:42:52.892Z,1732
2019-02-16T08:43:51.547Z,1728
2019-02-16T08:44:50.098Z,1728
2019-02-16T08:45:48.969Z,1732
2019-02-16T08:46:47.645Z,1728
2019-02-16T08:47:46.196Z,1732
2019-02-16T08:48:45.001Z,1736
2019-02-16T08:49:43.522Z,1744
2019-02-16T08:50:42.063Z,1748
2019-02-16T08:51:40.634Z,1748
2019-02-16T08:52:39.347Z,1752
2019-02-16T08:53:37.892Z,1756
2019-02-16T08:54:36.602Z,1764
2019-02-16T08:55:35.674Z,1764
2019-02-16T08:56:34.222Z,1768
2019-02-16T08:57:32.838Z,1764
2019-02-16T08:58:31.589Z,1764
2019-02-16T08:59:30.237Z,1768
2019-02-16T09:00:28.977Z,1772
2019-02-16T09:01:27.679Z,1776
2019-02-16T09:02:26.160Z,1772
2019-02-16T09:03:24.728Z,1776
2019-02-16T09:04:23.629Z,1776
2019-02-16T09:05:22.196Z,1776
2019-02-16T09:06:20.822Z,1780
2019-02-16T09:07:19.496Z,1784
2019-02-16T09:08:18.051Z,1788
2019-02-16T09:11:57.225Z,1796
2019-02-16T09:12:55.942Z,1800
2019-02-16T09:13:54.563Z,1800
2019-02-16T09:14:53.148Z,1804
2019-02-16T09:15:51.737Z,1804
2019-02-16T09:18:14.574Z,1808
2019-02-16T09:19:13.227Z,1812
2019-02-16T09:20:11.767Z,1812
2019-02-16T09:21:14.613Z,1820
2019-02-16T09:22:09.087Z,1820
2019-02-16T09:26:13.724Z,1840
2019-02-16T09:27:12.377Z,1840
2019-02-16T09:28:10.910Z,1848
2019-02-16T09:29:09.420Z,1852
2019-02-16T09:30:07.954Z,1856
2019-02-16T09:31:06.525Z,1860
2019-02-16T09:32:05.191Z,1868
2019-02-16T09:33:14.824Z,1872
2019-02-16T09:35:30.830Z,1888
2019-02-16T09:36:29.560Z,1892
2019-02-16T09:37:28.855Z,1900
2019-02-16T09:38:27.306Z,1904
2019-02-16T09:39:25.887Z,1912
2019-02-16T09:40:24.434Z,1912
2019-02-16T09:41:23.011Z,1920
2019-02-16T09:42:21.668Z,1924
2019-02-16T09:43:20.253Z,1932
2019-02-16T09:44:19.025Z,1936
2019-02-16T09:45:17.629Z,1936
2019-02-16T09:46:16.190Z,1940
2019-02-16T09:47:14.781Z,1948
2019-02-16T09:48:13.472Z,1952
2019-02-16T09:49:12.012Z,1960
2019-02-16T09:50:10.538Z,1964
2019-02-16T09:51:09.099Z,1968
2019-02-16T09:52:07.644Z,1972
2019-02-16T09:53:06.166Z,1980
2019-02-16T09:54:08.287Z,1984
2019-02-16T09:55:03.250Z,1988
2019-02-16T09:56:01.827Z,1992
2019-02-16T09:57:00.362Z,2000
2019-02-16T09:57:59.172Z,2004
2019-02-16T09:58:57.760Z,2008
2019-02-16T09:59:56.411Z,2012
2019-02-16T10:00:55.161Z,2020
2019-02-16T10:01:53.722Z,2024
2019-02-16T10:02:52.279Z,2024
2019-02-16T10:03:50.881Z,2028
2019-02-16T10:04:49.442Z,2028
2019-02-16T10:05:48.018Z,2032
2019-02-16T10:06:46.745Z,2036
2019-02-16T10:07:45.353Z,2044
2019-02-16T10:08:43.886Z,2048
2019-02-16T10:09:42.520Z,2056
2019-02-16T10:10:41.722Z,2056
2019-02-16T10:11:39.906Z,2060
2019-02-16T10:12:38.424Z,2064
2019-02-16T10:14:54.245Z,2068
2019-02-16T10:15:52.915Z,2072
2019-02-16T10:16:51.527Z,2076
2019-02-16T10:17:50.090Z,2084
2019-02-16T10:18:48.776Z,2088
2019-02-16T10:19:47.427Z,2088
2019-02-16T10:20:46.002Z,2092
2019-02-16T10:21:44.574Z,2096
2019-02-16T10:22:43.169Z,2100
2019-02-16T10:23:41.788Z,2100
2019-02-16T10:24:40.388Z,2104
2019-02-16T10:25:39.319Z,2104
2019-02-16T10:26:37.914Z,2108
2019-02-16T10:27:36.464Z,2112
2019-02-16T10:28:35.222Z,2112
2019-02-16T10:29:33.785Z,2116
2019-02-16T10:30:32.375Z,2120
2019-02-16T10:31:30.934Z,2124
2019-02-16T10:32:29.655Z,2124
2019-02-16T10:33:29.092Z,2124
2019-02-16T10:34:27.743Z,2124
2019-02-16T10:35:26.290Z,2124
2019-02-16T10:36:24.940Z,2124
2019-02-16T10:37:23.591Z,2124
2019-02-16T10:38:22.286Z,2128
2019-02-16T10:39:20.869Z,2132
2019-02-16T10:40:19.405Z,2132
2019-02-16T10:41:18.105Z,2136
2019-02-16T10:42:16.938Z,2136
2019-02-16T10:43:15.705Z,2140
2019-02-16T10:44:14.464Z,2140
2019-02-16T10:45:13.441Z,2144
2019-02-16T10:46:12.238Z,2144
2019-02-16T10:47:11.046Z,2144
2019-02-16T10:49:51.354Z,2144
2019-02-16T10:52:50.632Z,2144
2019-02-16T10:53:49.416Z,2144
2019-02-16T10:54:48.112Z,2140
2019-02-16T10:56:48.442Z,2136
2019-02-16T10:57:47.321Z,2132
2019-02-16T10:58:45.944Z,2128
2019-02-16T11:01:02.799Z,2124
2019-02-16T11:02:01.460Z,2120
2019-02-16T11:06:54.886Z,2104
2019-02-16T11:07:53.497Z,2100
2019-02-16T11:08:51.998Z,2092
2019-02-16T11:09:50.510Z,2088
2019-02-16T11:12:31.690Z,2072
2019-02-16T11:13:29.636Z,2064
2019-02-16T11:14:28.125Z,2060
2019-02-16T11:15:26.772Z,2052
2019-02-16T11:16:25.590Z,2048
2019-02-16T11:17:29.236Z,2048
2019-02-16T11:18:27.786Z,2040
2019-02-16T11:19:26.610Z,2040
2019-02-16T11:20:25.379Z,2036
2019-02-16T11:21:23.915Z,2028
2019-02-16T11:25:02.559Z,2008
2019-02-16T11:26:01.259Z,2004
2019-02-16T11:26:59.938Z,1992
2019-02-16T11:30:25.822Z,1960
2019-02-16T11:31:24.448Z,1956
2019-02-16T11:32:23.289Z,1948
2019-02-16T11:33:21.866Z,1944
2019-02-16T11:34:20.440Z,1940
2019-02-16T11:35:19.076Z,1936
2019-02-16T11:36:17.829Z,1932
2019-02-16T11:37:16.490Z,1936
2019-02-16T11:39:56.983Z,1928
2019-02-16T11:40:55.910Z,1932
2019-02-16T11:42:02.909Z,1932
2019-02-16T11:43:01.637Z,1932
2019-02-16T11:44:00.333Z,1932
2019-02-16T11:44:59.202Z,1928
2019-02-16T11:45:57.818Z,1932
2019-02-16T11:46:57.574Z,1928
2019-02-16T11:47:56.077Z,1924
2019-02-16T11:48:54.923Z,1916
2019-02-16T11:49:53.768Z,1920
2019-02-16T11:50:52.320Z,1912
2019-02-16T11:51:51.307Z,1912
2019-02-16T11:52:49.892Z,1904
2019-02-16T11:53:48.415Z,1900
2019-02-16T11:54:47.195Z,1892
2019-02-16T11:55:45.891Z,1888
2019-02-16T11:56:44.360Z,1880
2019-02-16T11:57:43.092Z,1880
2019-02-16T11:58:41.865Z,1872
2019-02-16T11:59:40.474Z,1864
2019-02-16T12:00:40.210Z,1860
2019-02-16T12:01:38.017Z,1860
2019-02-16T12:02:39.606Z,1856
2019-02-16T12:03:35.291Z,1856
2019-02-16T12:11:12.922Z,1824
2019-02-16T12:12:11.598Z,1820
2019-02-16T12:13:10.176Z,1820
2019-02-16T12:14:08.838Z,1816
2019-02-16T12:15:07.391Z,1812
2019-02-16T12:16:05.952Z,1808
2019-02-16T12:18:46.137Z,1804
2019-02-16T12:19:44.905Z,1800
2019-02-16T12:20:44.210Z,1800
2019-02-16T12:21:42.955Z,1792
2019-02-16T12:22:41.689Z,1792
2019-02-16T12:23:40.246Z,1792
2019-02-16T12:24:38.884Z,1788
2019-02-16T12:25:37.470Z,1792
2019-02-16T12:26:36.054Z,1788
2019-02-16T12:27:34.610Z,1792
2019-02-16T12:28:33.565Z,1792
2019-02-16T12:29:32.284Z,1796
2019-02-16T12:30:30.972Z,1796
2019-02-16T12:31:29.579Z,1796
2019-02-16T12:32:28.157Z,1796
2019-02-16T12:33:26.809Z,1800
2019-02-16T12:34:25.511Z,1796
2019-02-16T12:35:24.053Z,1800
2019-02-16T12:36:22.765Z,1800
2019-02-16T12:37:21.485Z,1800
2019-02-16T12:38:20.097Z,1804
2019-02-16T12:39:18.639Z,1800
2019-02-16T12:40:17.211Z,1804
2019-02-16T12:41:15.789Z,1808
2019-02-16T12:42:14.303Z,1808
2019-02-16T12:44:37.916Z,1808
2019-02-16T12:47:21.481Z,1808
2019-02-16T12:48:20.044Z,1808
2019-02-16T12:49:18.598Z,1808
2019-02-16T12:50:17.459Z,1812
2019-02-16T12:51:15.998Z,1812
2019-02-16T12:52:14.604Z,1816
2019-02-16T12:53:13.408Z,1812
2019-02-16T12:54:11.997Z,1816
2019-02-16T12:55:14.570Z,1816
2019-02-16T12:56:09.156Z,1816
2019-02-16T12:57:07.745Z,1820
2019-02-16T12:58:06.338Z,1816
2019-02-16T13:00:47.787Z,1824
2019-02-16T13:01:46.509Z,1820
2019-02-16T13:02:45.146Z,1824
2019-02-16T13:03:43.872Z,1824
2019-02-16T13:04:42.458Z,1828
2019-02-16T13:05:41.149Z,1824
2019-02-16T13:06:39.854Z,1824
2019-02-16T13:07:38.495Z,1828
2019-02-16T13:08:37.095Z,1828
2019-02-16T13:09:35.649Z,1828
2019-02-16T13:10:34.288Z,1828
2019-02-16T13:11:33.009Z,1828
2019-02-16T13:12:31.695Z,1832
2019-02-16T13:15:11.907Z,1832
2019-02-16T13:16:10.480Z,1828
2019-02-16T13:17:09.095Z,1832
2019-02-16T13:18:07.710Z,1832
2019-02-16T13:19:06.545Z,1832
2019-02-16T13:21:29.623Z,1836
2019-02-16T13:22:28.209Z,1836
2019-02-16T13:25:26.580Z,1840
2019-02-16T13:26:25.135Z,1836
2019-02-16T13:27:23.757Z,1836
2019-02-16T13:30:03.856Z,1840
2019-02-16T13:35:24.387Z,1832
2019-02-16T13:39:03.287Z,1832
2019-02-16T13:40:01.973Z,1832
2019-02-16T13:41:00.651Z,1836
2019-02-16T13:41:59.341Z,1832
2019-02-16T13:42:57.936Z,1836
2019-02-16T13:43:56.509Z,1832
2019-02-16T13:44:55.066Z,1832
2019-02-16T13:45:53.672Z,1828
2019-02-16T13:46:52.270Z,1828
2019-02-16T13:47:51.147Z,1828
2019-02-16T13:48:49.813Z,1824
2019-02-16T13:51:12.561Z,1824
2019-02-16T13:53:53.014Z,1820
2019-02-16T13:54:51.655Z,1820
2019-02-16T13:55:50.207Z,1820
2019-02-16T13:56:48.801Z,1824
2019-02-16T13:57:47.410Z,1824
2019-02-16T14:01:08.922Z,1816
2019-02-16T14:02:08.195Z,1816
2019-02-16T14:03:06.163Z,1816
2019-02-16T14:04:04.782Z,1812
2019-02-16T14:05:03.735Z,1812
2019-02-16T14:06:02.319Z,1812
2019-02-16T14:08:18.331Z,1808
2019-02-16T14:09:16.939Z,1808
2019-02-16T14:11:56.982Z,1804
2019-02-16T14:12:55.684Z,1804
2019-02-16T14:13:54.722Z,1804
2019-02-16T14:14:53.502Z,1804
2019-02-16T14:15:52.066Z,1796
2019-02-16T14:16:50.695Z,1796
2019-02-16T14:17:51.702Z,1796
2019-02-16T14:18:51.128Z,1792
2019-02-16T14:19:49.774Z,1792
2019-02-16T14:20:48.412Z,1788
2019-02-16T14:23:28.655Z,1784
2019-02-16T14:24:27.569Z,1780
2019-02-16T14:25:27.168Z,1780
2019-02-16T14:28:07.492Z,1776
2019-02-16T14:29:06.045Z,1776
2019-02-16T14:30:05.207Z,1772
2019-02-16T14:31:03.816Z,1768
2019-02-16T14:32:03.186Z,1764
2019-02-16T14:33:00.980Z,1764
2019-02-16T14:33:59.497Z,1764
2019-02-16T14:34:58.068Z,1760
2019-02-16T14:35:56.649Z,1756
2019-02-16T14:36:55.468Z,1756
2019-02-16T14:37:54.035Z,1752
2019-02-16T14:38:52.628Z,1744
2019-02-16T14:41:32.841Z,1740
2019-02-16T14:42:31.444Z,1736
2019-02-16T14:43:30.162Z,1732
2019-02-16T14:47:49.070Z,1716
2019-02-16T14:48:49.839Z,1716
2019-02-16T14:49:46.403Z,1704
2019-02-16T14:50:44.925Z,1660
2019-02-16T14:51:43.507Z,1696
2019-02-16T14:54:10.256Z,1688
2019-02-16T14:55:08.942Z,1688
2019-02-16T14:56:07.652Z,1692
2019-02-16T14:57:06.189Z,1680
2019-02-16T14:58:04.845Z,1664
2019-02-16T14:59:03.448Z,1656
2019-02-16T15:00:01.961Z,1656
2019-02-16T15:01:00.566Z,1640
2019-02-16T15:01:59.429Z,1608
2019-02-16T15:02:58.016Z,1572
2019-02-16T15:03:56.572Z,1564
2019-02-16T15:04:55.353Z,1564
2019-02-16T15:05:53.977Z,1600
2019-02-16T15:06:52.519Z,1588
2019-02-16T15:07:51.051Z,1572
2019-02-16T15:08:49.649Z,1540
2019-02-16T15:09:48.247Z,1528
2019-02-16T15:10:46.780Z,1520
2019-02-16T15:11:45.564Z,1524
2019-02-16T15:12:44.135Z,1500
2019-02-16T15:13:44.932Z,1512
2019-02-16T15:14:41.461Z,1488
2019-02-16T15:18:20.672Z,1496
2019-02-16T15:19:19.527Z,1424
2019-02-16T15:20:18.121Z,1412
2019-02-16T15:21:16.632Z,1428
2019-02-16T15:22:15.347Z,1448
2019-02-16T15:23:13.983Z,1396
2019-02-16T15:24:12.669Z,1344
2019-02-16T15:25:11.264Z,1300
2019-02-16T15:27:34.216Z,1264
2019-02-16T15:28:32.800Z,1248
2019-02-16T15:29:31.526Z,1248
2019-02-16T15:30:30.072Z,1260
2019-02-16T15:31:28.690Z,1324
2019-02-16T15:32:27.658Z,1380
2019-02-16T15:33:26.193Z,1364
2019-02-16T15:34:24.736Z,1328
2019-02-16T15:35:23.356Z,1256
2019-02-16T15:36:23.855Z,1228
2019-02-16T15:37:20.899Z,1232